Maxwell AFB Gunter Annex, Alabama
Current Conditions -  °F | °C
As of 11:58 AM on Wednesday 28 Jan 2015 (Local Time) from KMXF Reporting Station
Clear Clear  
Wind Chill: 48°   Ceiling: Unl
Heat Index: 48°   Visibility: 10mi
Dew Point: 31°   Wind: 0mph
Humidity: 51%   Direction: NA
Pressure: 30.29"   Gusts: NA
Location:  32.4045°N, 86.2459°W
Report Text: KMXF 281758Z AUTO 00000KT 10SM CLR 09/00 A3029 RMK AO2 SLP261 T00911005 10091 21004 58009
Loading
Personal Weather Stations






























Interactive Weather Map New forecast layout! Learn more

10-Day Weather Forecast

Advertisements
Track Severe Weather on mobile